NCAR-RAP Real-Time Weather Data

Output produced by METARs form (10 April 2020  07:28 UTC)
found at http://weather.rap.ucar.edu/surface/
 
KPWM 100651Z AUTO 28006KT 10SM FEW042 OVC055 02/M01 A2901 RMK AO2 SLP825 T00171006